Time;durP1;ratioP1;P1;durP2;ratioP2;P2;SDS_P1;SDS_P2;PMS_P1;PMS_P2;Temp;Humidity;BMP_temperature;BMP_pressure;BME280_temperature;BME280_humidity;BME280_pressure;Samples;Min_cycle;Max_cycle;Signal;HPM_P1;HPM_P2
2023/08/30 00:00:14;;;;;;;11.93;10.40;;;;;;;11.87;100.00;100808.94;5040496;28;20037;-81
2023/08/30 00:02:40;;;;;;;11.27;10.10;;;;;;;11.86;100.00;100809.88;5049120;28;20048;-82
2023/08/30 00:05:05;;;;;;;11.55;10.35;;;;;;;11.86;100.00;100804.59;5046331;28;20024;-82
2023/08/30 00:07:31;;;;;;;12.15;9.85;;;;;;;11.84;100.00;100798.63;5035671;28;20053;-82
2023/08/30 00:09:58;;;;;;;12.18;10.75;;;;;;;11.89;100.00;100798.25;5047714;28;20710;-82
2023/08/30 00:12:24;;;;;;;13.15;10.57;;;;;;;11.82;100.00;100803.19;5050311;28;20458;-82
2023/08/30 00:14:50;;;;;;;11.60;10.30;;;;;;;11.79;100.00;100792.88;5050100;28;20017;-82
2023/08/30 00:17:16;;;;;;;11.57;10.32;;;;;;;11.81;100.00;100798.88;5049949;28;20033;-82
2023/08/30 00:19:44;;;;;;;11.77;10.48;;;;;;;11.80;100.00;100793.72;5041738;28;20021;-82
2023/08/30 00:22:10;;;;;;;11.93;10.68;;;;;;;11.83;100.00;100789.03;5048545;28;20061;-82
2023/08/30 00:24:35;;;;;;;11.43;9.98;;;;;;;11.86;100.00;100795.88;5050709;28;20459;-82
2023/08/30 00:27:02;;;;;;;12.65;10.88;;;;;;;11.85;100.00;100789.75;5049264;28;20478;-81
2023/08/30 00:29:28;;;;;;;11.80;10.60;;;;;;;11.83;100.00;100789.03;5047030;28;20560;-81
2023/08/30 00:31:53;;;;;;;13.23;10.32;;;;;;;11.85;100.00;100788.91;5046141;28;20025;-81
2023/08/30 00:34:19;;;;;;;12.15;10.38;;;;;;;11.83;100.00;100788.19;5024518;28;20079;-81
2023/08/30 00:36:44;;;;;;;11.80;10.70;;;;;;;11.82;100.00;100787.38;5045749;28;20032;-82
2023/08/30 00:39:09;;;;;;;12.00;9.95;;;;;;;11.83;100.00;100785.56;5048049;28;20035;-82
2023/08/30 00:41:35;;;;;;;11.00;9.82;;;;;;;11.83;100.00;100783.75;5051022;28;20020;-81
2023/08/30 00:44:00;;;;;;;11.10;10.00;;;;;;;11.75;100.00;100780.88;5049045;28;20379;-82
2023/08/30 00:46:27;;;;;;;12.48;10.20;;;;;;;11.78;100.00;100771.91;5049109;28;20021;-81
2023/08/30 00:48:53;;;;;;;10.68;9.48;;;;;;;11.78;100.00;100764.00;5034173;28;20511;-82
2023/08/30 00:51:18;;;;;;;11.38;10.27;;;;;;;11.71;100.00;100763.63;5033685;28;20025;-81
2023/08/30 00:53:44;;;;;;;10.82;9.73;;;;;;;11.68;100.00;100769.16;5043456;28;20718;-82
2023/08/30 00:56:11;;;;;;;10.82;9.80;;;;;;;11.68;100.00;100769.16;5049264;28;20029;-82
2023/08/30 00:58:40;;;;;;;11.05;9.95;;;;;;;11.64;100.00;100762.47;5045754;28;20025;-81
2023/08/30 01:01:08;;;;;;;11.18;10.05;;;;;;;11.65;100.00;100752.75;5049458;28;20111;-82
2023/08/30 01:03:34;;;;;;;12.20;9.82;;;;;;;11.64;100.00;100751.91;5035736;28;20069;-82
2023/08/30 01:05:59;;;;;;;14.10;10.07;;;;;;;11.61;100.00;100755.63;5028237;28;20061;-82
2023/08/30 01:08:24;;;;;;;11.43;9.95;;;;;;;11.65;100.00;100752.75;5059523;28;20025;-82
2023/08/30 01:11:27;;;;;;;11.07;9.75;;;;;;;11.67;100.00;100754.31;5043910;28;20029;-82
2023/08/30 01:13:58;;;;;;;10.43;9.43;;;;;;;11.62;100.00;100751.19;5048938;28;20071;-82
2023/08/30 01:16:25;;;;;;;10.07;9.07;;;;;;;11.55;100.00;100757.91;5047711;28;20567;-82
2023/08/30 01:18:55;;;;;;;10.77;9.68;;;;;;;11.50;100.00;100752.16;5047119;28;20035;-80
2023/08/30 01:22:03;;;;;;;10.73;9.48;;;;;;;11.58;100.00;100749.75;5043884;28;20365;-80
2023/08/30 01:24:50;;;;;;;10.50;9.45;;;;;;;11.57;100.00;100745.44;5024309;28;20072;-81
2023/08/30 01:27:18;;;;;;;10.57;9.20;;;;;;;11.60;100.00;100750.47;5044914;28;20090;-81
2023/08/30 01:29:46;;;;;;;10.23;9.32;;;;;;;11.49;100.00;100753.13;5045442;28;20040;-80
2023/08/30 01:32:12;;;;;;;10.98;9.50;;;;;;;11.43;100.00;100748.34;5048751;28;20032;-81
2023/08/30 01:34:39;;;;;;;10.45;9.45;;;;;;;11.51;100.00;100746.75;5024989;28;20099;-81
2023/08/30 01:37:07;;;;;;;10.15;9.15;;;;;;;11.51;100.00;100741.50;5041261;28;20575;-81
2023/08/30 01:39:34;;;;;;;10.93;9.82;;;;;;;11.48;100.00;100747.00;5041641;28;20040;-81
2023/08/30 01:42:00;;;;;;;10.95;9.60;;;;;;;11.49;100.00;100747.84;5048042;28;20021;-82
2023/08/30 01:44:30;;;;;;;13.30;10.10;;;;;;;11.50;100.00;100754.78;5049349;28;20033;-81
2023/08/30 01:46:57;;;;;;;10.77;9.73;;;;;;;11.46;100.00;100748.94;5047048;28;20508;-82
2023/08/30 01:49:23;;;;;;;11.50;9.70;;;;;;;11.44;100.00;100745.59;5045753;28;20044;-81
2023/08/30 01:51:51;;;;;;;11.80;9.68;;;;;;;11.36;100.00;100747.16;5049313;28;20028;-81
2023/08/30 01:54:18;;;;;;;11.02;9.95;;;;;;;11.39;100.00;100737.22;5033309;28;20102;-82
2023/08/30 01:56:45;;;;;;;11.50;10.10;;;;;;;11.38;100.00;100738.16;5045120;28;20025;-81
2023/08/30 01:59:11;;;;;;;10.77;9.68;;;;;;;11.33;100.00;100737.69;5028384;28;20025;-81
2023/08/30 02:01:36;;;;;;;10.90;9.80;;;;;;;11.37;100.00;100740.94;5042443;28;20507;-81
2023/08/30 02:04:02;;;;;;;10.82;9.73;;;;;;;11.35;100.00;100740.22;5039882;28;20113;-81
2023/08/30 02:06:35;;;;;;;10.68;9.65;;;;;;;11.34;100.00;100743.81;5049247;28;20044;-81
2023/08/30 02:09:24;;;;;;;10.23;9.10;;;;;;;11.27;100.00;100744.28;5041174;28;20033;-82
2023/08/30 02:11:52;;;;;;;13.32;9.75;;;;;;;11.25;100.00;100746.22;5027253;28;20398;-81
2023/08/30 02:14:18;;;;;;;13.18;9.73;;;;;;;11.28;100.00;100751.22;5028460;28;20030;-81
2023/08/30 02:16:46;;;;;;;10.45;9.45;;;;;;;11.28;100.00;100739.84;5027885;28;20032;-81
2023/08/30 02:19:13;;;;;;;12.00;9.57;;;;;;;11.30;100.00;100732.66;5032065;28;20112;-82
2023/08/30 02:21:40;;;;;;;11.45;9.73;;;;;;;11.28;100.00;100730.16;5041577;28;20025;-81
2023/08/30 02:24:06;;;;;;;10.90;9.90;;;;;;;11.27;100.00;100730.28;5048446;28;20025;-82
2023/08/30 02:26:31;;;;;;;11.35;9.77;;;;;;;11.27;100.00;100723.22;5046108;28;20396;-82
2023/08/30 02:28:57;;;;;;;10.38;9.23;;;;;;;11.28;100.00;100719.63;5044752;28;20025;-83
2023/08/30 02:31:22;;;;;;;12.30;10.20;;;;;;;11.32;100.00;100719.38;5042585;28;20476;-82
2023/08/30 02:33:47;;;;;;;13.07;10.32;;;;;;;11.33;100.00;100713.16;5035830;28;20021;-82
2023/08/30 02:36:13;;;;;;;12.75;10.52;;;;;;;11.37;100.00;100714.59;5006618;28;20109;-83
2023/08/30 02:38:38;;;;;;;11.93;10.73;;;;;;;11.35;100.00;100708.59;5015098;28;20029;-83
2023/08/30 02:41:04;;;;;;;14.07;11.02;;;;;;;11.37;100.00;100712.78;5045065;28;20380;-82
2023/08/30 02:43:29;;;;;;;13.02;11.63;;;;;;;11.42;100.00;100709.78;5047468;28;20032;-83
2023/08/30 02:45:54;;;;;;;12.38;11.10;;;;;;;11.45;100.00;100707.75;5048344;28;20025;-83
2023/08/30 02:48:20;;;;;;;14.27;12.10;;;;;;;11.45;100.00;100706.91;5048570;28;20493;-83
2023/08/30 02:50:45;;;;;;;13.80;11.80;;;;;;;11.49;100.00;100708.31;5038777;28;20378;-82
2023/08/30 02:53:11;;;;;;;15.70;12.85;;;;;;;11.47;100.00;100700.53;5049162;28;20079;-83
2023/08/30 02:55:36;;;;;;;15.45;13.25;;;;;;;11.54;100.00;100704.34;5053102;28;20017;-82
2023/08/30 02:58:01;;;;;;;14.38;12.88;;;;;;;11.53;100.00;100696.56;5031318;28;20136;-83
2023/08/30 03:00:27;;;;;;;14.82;12.60;;;;;;;11.54;100.00;100693.81;5030480;28;20029;-83
2023/08/30 03:02:52;;;;;;;16.08;12.43;;;;;;;11.59;100.00;100696.09;5036859;28;20108;-83
2023/08/30 03:05:18;;;;;;;16.17;12.85;;;;;;;11.58;100.00;100694.41;5047856;28;20113;-83
2023/08/30 03:07:44;;;;;;;15.43;13.52;;;;;;;11.61;100.00;100688.91;5045496;28;20041;-83
2023/08/30 03:10:11;;;;;;;15.98;14.18;;;;;;;11.64;100.00;100695.75;5041396;28;20474;-83
2023/08/30 03:12:37;;;;;;;15.50;13.90;;;;;;;11.64;100.00;100693.09;5032208;28;20087;-83
2023/08/30 03:15:04;;;;;;;15.77;13.98;;;;;;;11.65;100.00;100690.34;5022421;28;20261;-83
2023/08/30 03:17:29;;;;;;;17.40;13.95;;;;;;;11.67;100.00;100693.69;5029079;28;20793;-83
2023/08/30 03:19:55;;;;;;;16.48;14.45;;;;;;;11.67;100.00;100688.41;5041944;28;20100;-83
2023/08/30 03:22:20;;;;;;;15.55;13.60;;;;;;;11.72;100.00;100686.25;5044085;28;20027;-83
2023/08/30 03:24:45;;;;;;;16.95;14.15;;;;;;;11.71;100.00;100689.00;5051121;28;20115;-83
2023/08/30 03:27:11;;;;;;;15.65;14.05;;;;;;;11.72;100.00;100682.78;5042515;28;20436;-83
2023/08/30 03:29:36;;;;;;;17.00;14.35;;;;;;;11.73;100.00;100674.75;5044347;28;20046;-83
2023/08/30 03:32:02;;;;;;;15.45;13.88;;;;;;;11.76;100.00;100678.91;5050287;28;20029;-83
2023/08/30 03:34:27;;;;;;;16.05;14.27;;;;;;;11.77;100.00;100668.25;5039692;28;20063;-83
2023/08/30 03:36:54;;;;;;;16.70;13.73;;;;;;;11.77;100.00;100662.97;5030120;28;20041;-83
2023/08/30 03:39:20;;;;;;;16.50;14.52;;;;;;;11.81;100.00;100658.31;5022277;28;20053;-83
2023/08/30 03:41:46;;;;;;;17.30;14.38;;;;;;;11.81;100.00;100648.63;5062706;28;20029;-82
2023/08/30 03:44:11;;;;;;;15.68;14.05;;;;;;;11.82;100.00;100642.38;5050846;28;20362;-83
2023/08/30 03:46:40;;;;;;;15.07;13.57;;;;;;;11.84;100.00;100636.97;5050563;28;20024;-83
2023/08/30 03:49:05;;;;;;;15.82;13.77;;;;;;;11.86;100.00;100627.97;5046127;28;20049;-83
2023/08/30 03:51:31;;;;;;;15.98;14.38;;;;;;;11.88;100.00;100623.41;5030648;28;20359;-83
2023/08/30 03:53:56;;;;;;;15.60;13.98;;;;;;;11.89;100.00;100611.06;5056403;28;20025;-84
2023/08/30 03:56:22;;;;;;;15.52;13.93;;;;;;;11.91;100.00;100617.03;5029333;28;20021;-83
2023/08/30 03:58:48;;;;;;;15.85;14.25;;;;;;;11.94;100.00;100606.25;5047074;28;20021;-83
2023/08/30 04:01:13;;;;;;;15.55;14.00;;;;;;;11.93;100.00;100604.56;5050121;28;20305;-83
2023/08/30 04:03:39;;;;;;;18.88;14.60;;;;;;;11.93;100.00;100594.88;5048040;28;20116;-83
2023/08/30 04:06:05;;;;;;;16.52;14.07;;;;;;;11.94;100.00;100593.06;5050454;28;20095;-83
2023/08/30 04:08:30;;;;;;;15.85;14.15;;;;;;;11.89;100.00;100588.16;5037983;28;20057;-83
2023/08/30 04:10:55;;;;;;;17.25;14.93;;;;;;;11.90;100.00;100589.84;5025259;28;20029;-82
2023/08/30 04:13:21;;;;;;;16.75;14.60;;;;;;;11.89;100.00;100587.34;5032781;28;20045;-83
2023/08/30 04:15:47;;;;;;;16.98;13.95;;;;;;;11.85;100.00;100586.75;5048364;28;20029;-83
2023/08/30 04:18:13;;;;;;;16.70;15.00;;;;;;;11.87;100.00;100590.09;5049300;28;20485;-82
2023/08/30 04:20:46;;;;;;;15.50;14.00;;;;;;;11.82;100.00;100597.56;5049044;28;20027;-83
2023/08/30 04:23:11;;;;;;;16.38;14.60;;;;;;;11.88;100.00;100597.03;5049733;28;20407;-83
2023/08/30 04:25:37;;;;;;;16.08;14.50;;;;;;;11.89;100.00;100592.63;5049332;28;20104;-83
2023/08/30 04:28:03;;;;;;;16.52;14.98;;;;;;;11.93;100.00;100594.88;5035229;28;20070;-83
2023/08/30 04:30:28;;;;;;;16.23;14.43;;;;;;;11.92;100.00;100587.91;5039598;28;20029;-83
2023/08/30 04:32:54;;;;;;;16.67;14.88;;;;;;;11.95;100.00;100588.63;5049842;28;20104;-83
2023/08/30 04:35:20;;;;;;;17.48;14.48;;;;;;;11.96;100.00;100577.94;5049187;28;20021;-83
2023/08/30 04:37:45;;;;;;;16.67;14.35;;;;;;;11.99;100.00;100576.84;5048576;28;20048;-83
2023/08/30 04:40:11;;;;;;;16.50;14.80;;;;;;;12.00;100.00;100570.63;5035300;28;20040;-83
2023/08/30 04:42:37;;;;;;;20.67;14.23;;;;;;;12.00;100.00;100584.63;5045375;28;20024;-83
2023/08/30 04:45:03;;;;;;;16.42;14.55;;;;;;;12.05;100.00;100581.63;5035630;28;20057;-82
2023/08/30 04:47:30;;;;;;;15.90;14.20;;;;;;;12.05;100.00;100576.34;5029460;28;20053;-83
2023/08/30 04:49:56;;;;;;;14.82;13.32;;;;;;;12.08;100.00;100576.94;5027713;28;20113;-83
2023/08/30 04:52:21;;;;;;;16.67;14.10;;;;;;;12.12;100.00;100566.97;5028263;28;20030;-83
2023/08/30 04:54:48;;;;;;;15.52;14.02;;;;;;;12.15;100.00;100566.69;5039834;28;20025;-83
2023/08/30 04:57:15;;;;;;;15.43;13.40;;;;;;;12.14;100.00;100565.88;5048861;28;20045;-83
2023/08/30 04:59:45;;;;;;;17.05;14.73;;;;;;;12.17;100.00;100559.50;5033462;28;20401;-83
2023/08/30 05:02:11;;;;;;;17.08;14.10;;;;;;;12.20;100.00;100556.59;5022565;28;20029;-83
2023/08/30 05:04:36;;;;;;;17.42;13.88;;;;;;;12.21;100.00;100555.63;5047929;28;20404;-83
2023/08/30 05:07:02;;;;;;;18.73;14.50;;;;;;;12.20;100.00;100548.66;5042459;28;20473;-83
2023/08/30 05:09:30;;;;;;;18.00;14.75;;;;;;;12.26;100.00;100553.41;5028344;28;20041;-83
2023/08/30 05:11:55;;;;;;;15.63;13.85;;;;;;;12.30;100.00;100560.09;5031908;28;20024;-82
2023/08/30 05:14:21;;;;;;;15.63;13.98;;;;;;;12.32;100.00;100558.16;5047137;28;20358;-83
2023/08/30 05:16:46;;;;;;;16.38;14.55;;;;;;;12.36;100.00;100553.47;5047547;28;20040;-82
2023/08/30 05:19:12;;;;;;;15.40;13.77;;;;;;;12.37;100.00;100547.22;5027621;28;20389;-83
2023/08/30 05:21:40;;;;;;;15.32;13.73;;;;;;;12.41;100.00;100536.28;5038762;28;20079;-83
2023/08/30 05:24:07;;;;;;;18.30;14.32;;;;;;;12.42;100.00;100532.69;5048293;28;20013;-83
2023/08/30 05:26:32;;;;;;;16.42;14.35;;;;;;;12.47;100.00;100533.13;5045480;28;20619;-83
2023/08/30 05:28:58;;;;;;;20.75;14.65;;;;;;;12.51;100.00;100537.16;5046703;28;20064;-83
2023/08/30 05:31:23;;;;;;;15.80;13.65;;;;;;;12.50;100.00;100538.13;5048911;28;20017;-83
2023/08/30 05:33:49;;;;;;;16.25;14.50;;;;;;;12.54;100.00;100536.06;5048647;28;20025;-83
2023/08/30 05:36:14;;;;;;;17.02;13.95;;;;;;;12.60;100.00;100539.97;5025272;28;20033;-83
2023/08/30 05:38:40;;;;;;;16.40;14.07;;;;;;;12.64;100.00;100541.34;5027888;28;20025;-83
2023/08/30 05:41:06;;;;;;;16.50;14.75;;;;;;;12.67;100.00;100535.81;5029406;28;20018;-83
2023/08/30 05:43:31;;;;;;;17.77;14.32;;;;;;;12.68;100.00;100537.47;5030341;28;20098;-83
2023/08/30 05:46:01;;;;;;;16.45;14.35;;;;;;;12.72;100.00;100528.31;5024931;28;20063;-83
2023/08/30 05:48:27;;;;;;;15.73;14.02;;;;;;;12.77;100.00;100523.47;5028446;28;20836;-83
2023/08/30 05:50:52;;;;;;;15.85;14.25;;;;;;;12.79;100.00;100518.88;5026106;28;20041;-83
2023/08/30 05:53:17;;;;;;;17.52;14.15;;;;;;;12.82;100.00;100518.63;5022020;28;20048;-83
2023/08/30 05:55:43;;;;;;;15.65;13.23;;;;;;;12.84;100.00;100514.88;5045371;28;20392;-83
2023/08/30 05:58:08;;;;;;;15.95;14.02;;;;;;;12.91;100.00;100512.53;5041513;28;20112;-83
2023/08/30 06:00:34;;;;;;;15.95;13.98;;;;;;;12.94;100.00;100508.78;5031654;28;20079;-83
2023/08/30 06:02:59;;;;;;;15.68;13.82;;;;;;;13.00;100.00;100501.13;5028660;28;20032;-82
2023/08/30 06:05:25;;;;;;;15.52;13.70;;;;;;;13.05;100.00;100509.47;5029317;28;20029;-82
2023/08/30 06:07:51;;;;;;;15.25;13.65;;;;;;;13.07;100.00;100504.91;5027176;28;20036;-82
2023/08/30 06:10:16;;;;;;;16.02;13.30;;;;;;;13.12;100.00;100509.75;5021410;28;20021;-82
2023/08/30 06:12:42;;;;;;;15.00;13.32;;;;;;;13.17;100.00;100512.84;5035220;28;20029;-82
2023/08/30 06:15:10;;;;;;;15.23;13.50;;;;;;;13.15;100.00;100510.31;5026941;28;20028;-82
2023/08/30 06:17:36;;;;;;;17.52;13.77;;;;;;;13.18;100.00;100504.78;5028590;28;20048;-82
2023/08/30 06:20:02;;;;;;;15.75;13.35;;;;;;;13.21;100.00;100500.19;5029452;28;20084;-82
2023/08/30 06:22:27;;;;;;;15.77;13.45;;;;;;;13.21;100.00;100497.56;5018815;28;20355;-82
2023/08/30 06:24:53;;;;;;;16.20;13.13;;;;;;;13.24;100.00;100497.31;5025759;28;20052;-82
2023/08/30 06:27:18;;;;;;;16.05;13.50;;;;;;;13.24;100.00;100498.13;5036322;28;20049;-82
2023/08/30 06:29:44;;;;;;;14.35;12.80;;;;;;;13.26;100.00;100495.34;5039223;28;20029;-82
2023/08/30 06:32:09;;;;;;;14.75;13.00;;;;;;;13.28;100.00;100498.69;5066118;28;20033;-82
2023/08/30 06:34:34;;;;;;;14.13;12.73;;;;;;;13.26;100.00;100495.34;5042644;28;20083;-81
2023/08/30 06:37:00;;;;;;;13.85;12.40;;;;;;;13.30;100.00;100502.03;5063395;28;20447;-82
2023/08/30 06:39:25;;;;;;;14.15;12.77;;;;;;;13.34;100.00;100509.53;5040109;28;20024;-82
2023/08/30 06:41:51;;;;;;;16.00;13.93;;;;;;;13.39;100.00;100514.41;5040519;28;20426;-82
2023/08/30 06:44:17;;;;;;;14.52;12.88;;;;;;;13.39;100.00;100512.59;5058420;28;20057;-82
2023/08/30 06:46:42;;;;;;;17.25;14.07;;;;;;;13.41;100.00;100505.34;5038668;28;20503;-83
2023/08/30 06:49:09;;;;;;;16.67;14.02;;;;;;;13.38;100.00;100508.28;5049671;28;20049;-83
2023/08/30 06:51:35;;;;;;;16.35;13.20;;;;;;;13.40;100.00;100511.63;5037692;28;20028;-83
2023/08/30 06:54:00;;;;;;;16.00;14.25;;;;;;;13.39;100.00;100507.31;5043725;28;20020;-84
2023/08/30 06:56:28;;;;;;;15.10;13.57;;;;;;;13.40;100.00;100518.72;5051739;28;20028;-85
2023/08/30 06:58:54;;;;;;;20.25;15.27;;;;;;;13.33;100.00;100522.88;5029158;28;20425;-86
2023/08/30 07:01:19;;;;;;;19.00;14.77;;;;;;;13.30;100.00;100517.88;5027634;28;20028;-85
2023/08/30 07:03:45;;;;;;;16.10;14.43;;;;;;;13.28;100.00;100509.25;5011306;28;20030;-83
2023/08/30 07:06:10;;;;;;;15.52;13.82;;;;;;;13.25;100.00;100505.09;5031435;28;20083;-82
2023/08/30 07:08:36;;;;;;;17.63;14.45;;;;;;;13.25;100.00;100498.97;5031043;28;20386;-83
2023/08/30 07:11:02;;;;;;;14.63;12.60;;;;;;;13.16;100.00;100485.56;5031001;28;20543;-83
2023/08/30 07:13:28;;;;;;;13.27;11.88;;;;;;;13.19;100.00;100481.84;5031663;28;20036;-83
2023/08/30 07:15:54;;;;;;;16.10;13.07;;;;;;;13.12;100.00;100468.31;5026317;28;20025;-83
2023/08/30 07:18:19;;;;;;;14.13;11.93;;;;;;;13.09;100.00;100463.31;5042323;28;20111;-82
2023/08/30 07:20:45;;;;;;;14.15;12.15;;;;;;;13.10;100.00;100464.16;5034061;28;20017;-82
2023/08/30 07:23:10;;;;;;;17.75;12.05;;;;;;;13.07;100.00;100459.16;5030534;28;20113;-84
2023/08/30 07:25:37;;;;;;;15.00;12.43;;;;;;;13.08;100.00;100461.66;5037812;28;20055;-85
2023/08/30 07:28:04;;;;;;;13.32;11.43;;;;;;;13.05;100.00;100467.22;5047936;28;20226;-86
2023/08/30 07:30:29;;;;;;;13.13;11.75;;;;;;;13.07;100.00;100462.63;5041194;28;20091;-85
2023/08/30 07:32:55;;;;;;;12.30;10.88;;;;;;;13.04;100.00;100457.63;5035290;28;20439;-84
2023/08/30 07:35:20;;;;;;;12.70;11.30;;;;;;;13.09;100.00;100458.03;5048663;28;20025;-85
2023/08/30 07:37:46;;;;;;;11.63;10.05;;;;;;;13.07;100.00;100459.16;5044912;28;20120;-85
2023/08/30 07:40:12;;;;;;;12.35;10.70;;;;;;;13.04;100.00;100455.00;5028583;28;20037;-86
2023/08/30 07:42:37;;;;;;;13.82;10.55;;;;;;;13.05;100.00;100451.38;5062271;28;20025;-85
2023/08/30 07:45:04;;;;;;;12.30;10.10;;;;;;;13.04;100.00;100452.34;5036925;28;20030;-84
2023/08/30 07:47:29;;;;;;;12.63;10.00;;;;;;;13.04;100.00;100449.72;5034371;28;20184;-86
2023/08/30 07:49:55;;;;;;;12.02;10.05;;;;;;;13.05;100.00;100451.38;5049733;28;20040;-85
2023/08/30 07:52:20;;;;;;;10.95;9.43;;;;;;;13.07;100.00;100449.44;5032181;28;20029;-85
2023/08/30 07:54:45;;;;;;;10.98;9.65;;;;;;;13.11;100.00;100444.69;5041518;28;20028;-85
2023/08/30 07:57:11;;;;;;;10.57;9.48;;;;;;;13.11;100.00;100434.13;5051669;28;20020;-85
2023/08/30 07:59:36;;;;;;;13.95;10.63;;;;;;;13.09;100.00;100439.56;5033333;28;20430;-84
2023/08/30 08:02:03;;;;;;;10.45;9.10;;;;;;;13.11;100.00;100448.16;5030400;28;20049;-84
2023/08/30 08:04:29;;;;;;;10.55;9.25;;;;;;;13.13;100.00;100448.88;5031159;28;20094;-84
2023/08/30 08:06:55;;;;;;;10.65;9.30;;;;;;;13.13;100.00;100446.22;5030055;28;20100;-85
2023/08/30 08:09:21;;;;;;;10.43;9.38;;;;;;;13.16;100.00;100443.31;5031449;28;20021;-85
2023/08/30 08:11:48;;;;;;;12.05;9.55;;;;;;;13.15;100.00;100454.84;5031390;28;20036;-85
2023/08/30 08:14:13;;;;;;;13.32;9.40;;;;;;;13.15;100.00;100452.19;5030691;28;20440;-85
2023/08/30 08:16:39;;;;;;;9.45;8.45;;;;;;;13.17;100.00;100454.72;5031699;28;20128;-86
2023/08/30 08:19:05;;;;;;;9.55;8.65;;;;;;;13.18;100.00;100451.13;5031410;28;20075;-85
2023/08/30 08:21:31;;;;;;;9.57;8.57;;;;;;;13.15;100.00;100457.47;5030702;28;20101;-83
2023/08/30 08:23:56;;;;;;;8.98;7.55;;;;;;;13.17;100.00;100457.38;5031642;28;20440;-84
2023/08/30 08:26:22;;;;;;;9.07;7.55;;;;;;;13.15;100.00;100452.19;5029826;28;20433;-85
2023/08/30 08:28:47;;;;;;;8.18;7.35;;;;;;;13.19;100.00;100452.78;5035555;28;20029;-84
2023/08/30 08:31:13;;;;;;;8.63;7.35;;;;;;;13.22;100.00;100446.41;5035203;28;20423;-83
2023/08/30 08:33:40;;;;;;;9.40;6.80;;;;;;;13.23;100.00;100448.91;5037924;28;20033;-83
2023/08/30 08:36:05;;;;;;;8.40;7.10;;;;;;;13.24;100.00;100457.69;5042879;28;20071;-83
2023/08/30 08:38:30;;;;;;;7.90;7.10;;;;;;;13.25;100.00;100456.69;5046986;28;20520;-83
2023/08/30 08:41:03;;;;;;;9.25;7.25;;;;;;;13.27;100.00;100454.75;5026513;28;20024;-83
2023/08/30 08:43:29;;;;;;;9.02;6.60;;;;;;;13.30;100.00;100449.19;5027813;28;20112;-85
2023/08/30 08:46:01;;;;;;;10.18;6.95;;;;;;;13.32;100.00;100447.22;5020969;28;20088;-83
2023/08/30 08:48:29;;;;;;;9.02;6.95;;;;;;;13.34;100.00;100442.63;5023546;28;20037;-84
2023/08/30 08:50:56;;;;;;;8.40;7.10;;;;;;;13.37;100.00;100439.72;5045125;28;20033;-83
2023/08/30 08:53:21;;;;;;;7.40;6.55;;;;;;;13.38;100.00;100446.66;5034028;28;20025;-83
2023/08/30 08:55:48;;;;;;;6.93;6.15;;;;;;;13.36;100.00;100449.44;5028274;28;20040;-84
2023/08/30 08:58:15;;;;;;;6.80;6.07;;;;;;;13.42;100.00;100448.03;5023660;28;20022;-83
2023/08/30 09:00:45;;;;;;;7.63;6.80;;;;;;;13.50;100.00;100442.88;5021142;28;20529;-83
2023/08/30 09:03:11;;;;;;;6.75;6.13;;;;;;;13.60;100.00;100448.13;5013761;28;20030;-84
2023/08/30 09:05:40;;;;;;;7.15;6.15;;;;;;;13.68;100.00;100443.00;5030297;28;20354;-83
2023/08/30 09:08:06;;;;;;;6.70;6.00;;;;;;;13.71;100.00;100443.53;5028426;28;20016;-83
2023/08/30 09:10:34;;;;;;;7.25;6.55;;;;;;;13.80;100.00;100442.66;5034345;28;20396;-84
2023/08/30 09:13:00;;;;;;;7.55;6.35;;;;;;;13.92;100.00;100443.31;5015527;28;20477;-83
2023/08/30 09:15:32;;;;;;;8.52;6.68;;;;;;;14.09;100.00;100441.75;5030564;28;20036;-83
2023/08/30 09:17:58;;;;;;;12.18;7.63;;;;;;;14.27;100.00;100434.69;5029232;28;20098;-83
2023/08/30 09:20:24;;;;;;;7.70;6.97;;;;;;;14.40;100.00;100429.84;5017036;28;20100;-82
2023/08/30 09:22:50;;;;;;;7.10;6.38;;;;;;;14.46;100.00;100427.66;5027199;28;20044;-82
2023/08/30 09:25:26;;;;;;;6.72;5.90;;;;;;;14.47;100.00;100439.91;5028409;28;20025;-81
2023/08/30 09:27:59;;;;;;;7.18;6.03;;;;;;;14.47;100.00;100448.69;5033581;28;20032;-83
2023/08/30 09:30:24;;;;;;;;;;;;;;;14.58;100.00;100445.00;5031757;28;20060;-82
2023/08/30 09:32:49;;;;;;;6.70;6.10;;;;;;;14.51;100.00;100446.56;5034377;28;19929;-83
2023/08/30 09:35:15;;;;;;;8.07;6.72;;;;;;;14.61;100.00;100447.34;5042762;28;20385;-82
2023/08/30 09:37:40;;;;;;;7.03;6.38;;;;;;;14.70;100.00;100449.09;5020926;28;20432;-84
2023/08/30 09:40:06;;;;;;;6.80;6.15;;;;;;;14.78;100.00;100443.88;5026529;28;20025;-82
2023/08/30 09:42:32;;;;;;;7.85;6.70;;;;;;;14.89;100.00;100437.53;5026748;28;20018;-83
2023/08/30 09:44:58;;;;;;;7.78;6.90;;;;;;;14.89;100.00;100443.66;5028001;28;20029;-83
2023/08/30 09:47:27;;;;;;;7.30;6.60;;;;;;;14.97;100.00;100443.72;5033438;28;20076;-83
2023/08/30 09:49:55;;;;;;;9.50;7.13;;;;;;;15.09;100.00;100443.50;5035082;28;20029;-83
2023/08/30 09:52:23;;;;;;;8.48;7.68;;;;;;;15.21;100.00;100443.13;5029906;28;20030;-82
2023/08/30 09:54:49;;;;;;;8.10;7.40;;;;;;;15.39;100.00;100437.78;5031111;28;20469;-83
2023/08/30 09:57:16;;;;;;;8.15;7.35;;;;;;;15.61;100.00;100447.94;5029017;28;20029;-83
2023/08/30 09:59:42;;;;;;;8.48;7.78;;;;;;;15.87;100.00;100439.13;5027590;28;20425;-83
2023/08/30 10:02:09;;;;;;;7.80;7.10;;;;;;;15.96;100.00;100435.50;5031023;28;20049;-83
2023/08/30 10:04:39;;;;;;;9.85;7.82;;;;;;;16.12;100.00;100440.09;5032386;28;20116;-83
2023/08/30 10:07:04;;;;;;;7.88;7.15;;;;;;;16.29;100.00;100421.41;5033299;28;20075;-83
2023/08/30 10:09:30;;;;;;;8.10;7.32;;;;;;;16.52;100.00;100431.44;5051657;28;20026;-83
2023/08/30 10:11:58;;;;;;;8.18;7.43;;;;;;;16.86;100.00;100429.56;5032582;28;20041;-83
2023/08/30 10:14:23;;;;;;;7.63;7.03;;;;;;;17.14;100.00;100424.72;5028165;28;20036;-83
2023/08/30 10:16:51;;;;;;;7.25;6.65;;;;;;;17.33;100.00;100418.25;5032780;28;20041;-84
2023/08/30 10:19:27;;;;;;;7.35;6.75;;;;;;;17.74;100.00;100416.41;5032932;28;20017;-83
2023/08/30 10:22:04;;;;;;;7.47;6.78;;;;;;;17.66;100.00;100418.22;5032141;28;20108;-83
2023/08/30 10:24:42;;;;;;;7.60;7.00;;;;;;;17.77;100.00;100407.25;5041412;28;20485;-83
2023/08/30 10:27:11;;;;;;;7.70;6.75;;;;;;;17.96;100.00;100414.81;5029700;28;20136;-83
2023/08/30 10:29:40;;;;;;;7.97;7.15;;;;;;;17.94;100.00;100403.50;5044067;28;20028;-83
2023/08/30 10:32:06;;;;;;;7.30;6.60;;;;;;;17.95;100.00;100412.31;5026461;28;20033;-83
2023/08/30 10:34:36;;;;;;;6.97;6.30;;;;;;;17.93;100.00;100409.84;5031272;28;20033;-83
2023/08/30 10:37:03;;;;;;;6.72;6.13;;;;;;;18.05;100.00;100407.66;5035305;28;20289;-83
2023/08/30 10:39:38;;;;;;;7.07;6.53;;;;;;;18.07;100.00;100411.81;5031466;28;20824;-82
2023/08/30 10:42:13;;;;;;;7.40;6.70;;;;;;;18.15;100.00;100406.44;5022807;28;20025;-82
2023/08/30 10:44:50;;;;;;;6.20;5.70;;;;;;;18.42;100.00;100405.16;5031248;28;20067;-82
2023/08/30 10:47:35;;;;;;;6.03;5.07;;;;;;;18.53;98.12;100411.06;5023258;28;20053;-83
2023/08/30 10:50:06;;;;;;;6.00;5.43;;;;;;;18.39;96.36;100410.78;5032063;28;20022;-83
2023/08/30 10:52:32;;;;;;;5.85;5.32;;;;;;;18.44;95.22;100400.47;5032541;28;20080;-82
2023/08/30 10:55:12;;;;;;;6.03;5.38;;;;;;;18.67;95.68;100399.69;5036672;28;20436;-82
2023/08/30 10:57:44;;;;;;;5.18;4.75;;;;;;;18.77;92.09;100411.75;5038553;28;20036;-83
2023/08/30 11:00:19;;;;;;;5.72;4.75;;;;;;;18.85;91.16;100405.56;5032526;28;20025;-82
2023/08/30 11:02:47;;;;;;;5.57;4.20;;;;;;;19.00;92.54;100401.09;5031883;28;20048;-83
2023/08/30 11:05:15;;;;;;;4.50;4.10;;;;;;;18.97;92.44;100397.97;5032489;28;20100;-83